Time;durP1;ratioP1;P1;durP2;ratioP2;P2;SDS_P1;SDS_P2;PMS_P1;PMS_P2;Temp;Humidity;BMP_temperature;BMP_pressure;BME280_temperature;BME280_humidity;BME280_pressure;Samples;Min_cycle;Max_cycle;Signal;HPM_P1;HPM_P2
2022/10/19 00:00:44;;;;;;;;;;;9.30;99.90;;;;;;5029943;28;20472;-69
2022/10/19 00:03:09;;;;;;;;;;;9.20;99.90;;;;;;5028579;28;20028;-69
2022/10/19 00:05:35;;;;;;;;;;;9.20;99.90;;;;;;5029096;28;19978;-69
2022/10/19 00:08:01;;;;;;;;;;;9.30;99.90;;;;;;5024143;28;19925;-69
2022/10/19 00:10:27;;;;;;;;;;;9.30;99.90;;;;;;5029864;28;19975;-69
2022/10/19 00:12:52;;;;;;;;;;;9.30;99.90;;;;;;5029846;28;20259;-69
2022/10/19 00:15:18;;;;;;;;;;;9.40;99.90;;;;;;5040129;28;19931;-69
2022/10/19 00:17:43;;;;;;;;;;;9.40;99.90;;;;;;5031665;28;19951;-69
2022/10/19 00:20:09;;;;;;;;;;;9.40;99.90;;;;;;5040615;28;19929;-69
2022/10/19 00:22:35;;;;;;;;;;;9.50;99.90;;;;;;5033604;28;20381;-69
2022/10/19 00:25:00;;;;;;;;;;;9.50;99.90;;;;;;5012566;28;19921;-69
2022/10/19 00:27:26;;;;;;;;;;;9.60;99.90;;;;;;5037404;28;19925;-69
2022/10/19 00:29:51;;;;;;;;;;;9.60;99.90;;;;;;5037145;28;20020;-69
2022/10/19 00:32:16;;;;;;;;;;;9.70;99.90;;;;;;5030575;28;20028;-69
2022/10/19 00:34:42;;;;;;;;;;;9.70;99.90;;;;;;5030429;28;19925;-69
2022/10/19 00:37:07;;;;;;;;;;;9.80;99.90;;;;;;5030640;28;19925;-69
2022/10/19 00:39:33;;;;;;;;;;;9.80;99.90;;;;;;5028538;28;19926;-69
2022/10/19 00:41:58;;;;;;;;;;;9.80;99.90;;;;;;5037454;28;20255;-69
2022/10/19 00:44:29;;;;;;;;;;;9.80;99.90;;;;;;5030143;28;19987;-69
2022/10/19 00:47:03;;;;;;;;;;;9.90;99.90;;;;;;5030316;28;20020;-69
2022/10/19 00:49:30;;;;;;;;;;;9.90;99.90;;;;;;5041366;28;19944;-69
2022/10/19 00:51:57;;;;;;;;;;;9.90;99.90;;;;;;5038873;28;19975;-69
2022/10/19 00:54:23;;;;;;;;;;;10.00;99.90;;;;;;5036565;28;19929;-69
2022/10/19 00:56:50;;;;;;;;;;;10.00;99.90;;;;;;5028533;28;19956;-69
2022/10/19 00:59:17;;;;;;;;;;;10.00;99.90;;;;;;5039408;28;20375;-69
2022/10/19 01:01:43;;;;;;;;;;;10.00;99.90;;;;;;5028595;28;19928;-69
2022/10/19 01:04:09;;;;;;;;;;;10.00;99.90;;;;;;5031367;28;19925;-69
2022/10/19 01:06:35;;;;;;;;;;;10.00;99.90;;;;;;5029558;28;19925;-69
2022/10/19 01:09:00;;;;;;;;;;;10.00;99.90;;;;;;5028836;28;20092;-69
2022/10/19 01:11:43;;;;;;;;;;;10.00;99.90;;;;;;5007705;28;19961;-69
2022/10/19 01:14:18;;;;;;;;;;;10.00;99.90;;;;;;5027886;28;19955;-69
2022/10/19 01:16:54;;;;;;;;;;;10.00;99.90;;;;;;5032172;28;20264;-69
2022/10/19 01:19:39;;;;;;;;;;;10.00;99.90;;;;;;5028159;28;19921;-69
2022/10/19 01:22:07;;;;;;;;;;;10.10;99.90;;;;;;5041236;28;19926;-69
2022/10/19 01:24:47;;;;;;;;;;;10.10;99.90;;;;;;5029037;28;19941;-69
2022/10/19 01:27:31;;;;;;;;;;;10.10;99.90;;;;;;5031103;28;20064;-69
2022/10/19 01:29:59;;;;;;;;;;;10.10;99.90;;;;;;5025795;28;19925;-69
2022/10/19 01:32:31;;;;;;;;;;;10.10;99.90;;;;;;5032649;28;19925;-69
2022/10/19 01:35:10;;;;;;;;;;;10.10;99.90;;;;;;5029256;28;20067;-69
2022/10/19 01:37:46;;;;;;;;;;;10.10;99.90;;;;;;5022487;28;20378;-69
2022/10/19 01:40:35;;;;;;;;;;;10.20;99.90;;;;;;5028688;28;20260;-69
2022/10/19 01:43:24;;;;;;;;;;;10.20;99.90;;;;;;5038793;28;19932;-69
2022/10/19 01:45:54;;;;;;;;;;;10.20;99.90;;;;;;5021449;28;19925;-69
2022/10/19 01:48:25;;;;;;;;;;;10.20;99.90;;;;;;5031195;28;20021;-69
2022/10/19 01:50:54;;;;;;;;;;;10.20;99.90;;;;;;5028140;28;19921;-69
2022/10/19 01:53:20;;;;;;;;;;;10.20;99.90;;;;;;5030336;28;19929;-69
2022/10/19 01:55:48;;;;;;;;;;;10.20;99.90;;;;;;5041112;28;19950;-69
2022/10/19 01:58:16;;;;;;;;;;;10.20;99.90;;;;;;5031359;28;19928;-69
2022/10/19 02:00:43;;;;;;;;;;;10.20;99.90;;;;;;5030436;28;19925;-69
2022/10/19 02:03:09;;;;;;;;;;;10.20;99.90;;;;;;5029460;28;20337;-69
2022/10/19 02:05:35;;;;;;;;;;;10.30;99.90;;;;;;5038794;28;19929;-69
2022/10/19 02:08:03;;;;;;;;;;;10.30;99.90;;;;;;5032240;28;20337;-69
2022/10/19 02:10:30;;;;;;;;;;;10.30;99.90;;;;;;5027039;28;19947;-69
2022/10/19 02:12:57;;;;;;;;;;;10.30;99.90;;;;;;5029745;28;20315;-69
2022/10/19 02:15:24;;;;;;;;;;;10.30;99.90;;;;;;5030965;28;19941;-69
2022/10/19 02:17:51;;;;;;;;;;;10.30;99.90;;;;;;5032695;28;19933;-69
2022/10/19 02:20:17;;;;;;;;;;;10.30;99.90;;;;;;5030908;28;20016;-69
2022/10/19 02:22:43;;;;;;;;;;;10.30;99.90;;;;;;5033693;28;20044;-69
2022/10/19 02:25:09;;;;;;;;;;;10.30;99.90;;;;;;5030581;28;20279;-69
2022/10/19 02:27:35;;;;;;;;;;;10.30;99.90;;;;;;5030377;28;19936;-69
2022/10/19 02:30:01;;;;;;;;;;;10.30;99.90;;;;;;5022609;28;19924;-69
2022/10/19 02:32:27;;;;;;;;;;;10.40;99.90;;;;;;5030566;28;19924;-69
2022/10/19 02:34:53;;;;;;;;;;;10.30;99.90;;;;;;5030313;28;20074;-70
2022/10/19 02:37:18;;;;;;;;;;;10.30;99.90;;;;;;5029348;28;19928;-69
2022/10/19 02:39:44;;;;;;;;;;;10.40;99.90;;;;;;5032109;28;19925;-69
2022/10/19 02:42:14;;;;;;;;;;;10.40;99.90;;;;;;5031543;28;20383;-69
2022/10/19 02:44:49;;;;;;;;;;;10.40;99.90;;;;;;5032873;28;19928;-69
2022/10/19 02:47:20;;;;;;;;;;;10.40;99.90;;;;;;5029091;28;20016;-69
2022/10/19 02:49:46;;;;;;;;;;;10.30;99.90;;;;;;5024313;28;19930;-69
2022/10/19 02:52:12;;;;;;;;;;;10.30;99.90;;;;;;5029744;28;19964;-69
2022/10/19 02:54:38;;;;;;;;;;;10.20;99.90;;;;;;5028484;28;19957;-69
2022/10/19 02:57:13;;;;;;;;;;;10.20;99.90;;;;;;5031520;28;19957;-69
2022/10/19 02:59:38;;;;;;;;;;;10.10;99.90;;;;;;5030783;28;19983;-69
2022/10/19 03:02:04;;;;;;;;;;;10.10;99.90;;;;;;5030169;28;19925;-69
2022/10/19 03:04:29;;;;;;;;;;;10.00;99.90;;;;;;5031031;28;19973;-69
2022/10/19 03:06:55;;;;;;;;;;;10.00;99.90;;;;;;5042713;28;19998;-69
2022/10/19 03:09:20;;;;;;;;;;;10.00;99.90;;;;;;5041481;28;19925;-69
2022/10/19 03:11:46;;;;;;;;;;;10.00;99.90;;;;;;5023849;28;19927;-69
2022/10/19 03:14:11;;;;;;;;;;;9.90;99.90;;;;;;5037389;28;19921;-69
2022/10/19 03:16:36;;;;;;;;;;;9.90;99.90;;;;;;5033394;28;19970;-69
2022/10/19 03:19:02;;;;;;;;;;;9.90;99.90;;;;;;5030247;28;20286;-70
2022/10/19 03:21:27;;;;;;;;;;;9.80;99.90;;;;;;5036346;28;19936;-69
2022/10/19 03:23:53;;;;;;;;;;;9.80;99.90;;;;;;5012919;28;19921;-70
2022/10/19 03:26:18;;;;;;;;;;;9.70;99.90;;;;;;5029161;28;19925;-69
2022/10/19 03:28:44;;;;;;;;;;;9.70;99.90;;;;;;5028739;28;20059;-70
2022/10/19 03:31:09;;;;;;;;;;;9.70;99.90;;;;;;5026558;28;20329;-69
2022/10/19 03:33:35;;;;;;;;;;;9.60;99.90;;;;;;5029658;28;19925;-70
2022/10/19 03:36:14;;;;;;;;;;;9.50;99.90;;;;;;5032768;28;19921;-69
2022/10/19 03:38:40;;;;;;;;;;;9.50;99.90;;;;;;5029002;28;19921;-69
2022/10/19 03:41:06;;;;;;;;;;;9.40;99.90;;;;;;5044114;28;19925;-69
2022/10/19 03:43:31;;;;;;;;;;;9.30;99.90;;;;;;5038963;28;19955;-69
2022/10/19 03:45:57;;;;;;;;;;;9.20;99.90;;;;;;5030863;28;20392;-69
2022/10/19 03:48:22;;;;;;;;;;;9.10;99.90;;;;;;5027119;28;19929;-69
2022/10/19 03:50:47;;;;;;;;;;;9.10;99.90;;;;;;5030441;28;19928;-69
2022/10/19 03:53:13;;;;;;;;;;;9.00;99.90;;;;;;5013535;28;19979;-69
2022/10/19 03:55:39;;;;;;;;;;;9.00;99.90;;;;;;5025268;28;19960;-69
2022/10/19 03:58:04;;;;;;;;;;;8.90;99.90;;;;;;5041567;28;19999;-69
2022/10/19 04:00:29;;;;;;;;;;;8.80;99.90;;;;;;5033129;28;20359;-70
2022/10/19 04:02:55;;;;;;;;;;;8.80;99.90;;;;;;5040183;28;19921;-69
2022/10/19 04:05:20;;;;;;;;;;;8.80;99.90;;;;;;5030587;28;20378;-69
2022/10/19 04:07:46;;;;;;;;;;;8.80;99.90;;;;;;5044847;28;19925;-69
2022/10/19 04:10:11;;;;;;;;;;;8.70;99.90;;;;;;5043787;28;19975;-69
2022/10/19 04:12:37;;;;;;;;;;;8.70;99.90;;;;;;5029459;28;19943;-69
2022/10/19 04:15:02;;;;;;;;;;;8.60;99.90;;;;;;5027356;28;20007;-69
2022/10/19 04:17:28;;;;;;;;;;;8.60;99.90;;;;;;5027558;28;19960;-69
2022/10/19 04:19:53;;;;;;;;;;;8.50;99.90;;;;;;5043578;28;19971;-69
2022/10/19 04:22:19;;;;;;;;;;;8.50;99.90;;;;;;5021338;28;19925;-69
2022/10/19 04:24:44;;;;;;;;;;;8.50;99.90;;;;;;5028937;28;20028;-69
2022/10/19 04:27:10;;;;;;;;;;;8.50;99.90;;;;;;5033406;28;19924;-69
2022/10/19 04:29:35;;;;;;;;;;;8.50;99.90;;;;;;5034467;28;20403;-69
2022/10/19 04:32:01;;;;;;;;;;;8.50;99.90;;;;;;5028034;28;19921;-69
2022/10/19 04:34:26;;;;;;;;;;;8.40;99.90;;;;;;5024556;28;19921;-69
2022/10/19 04:36:52;;;;;;;;;;;8.50;99.90;;;;;;5026215;28;20366;-69
2022/10/19 04:39:17;;;;;;;;;;;8.50;99.90;;;;;;5035343;28;19921;-69
2022/10/19 04:41:43;;;;;;;;;;;8.50;99.90;;;;;;5029488;28;19971;-69
2022/10/19 04:44:08;;;;;;;;;;;8.40;99.90;;;;;;5028489;28;20016;-69
2022/10/19 04:46:34;;;;;;;;;;;8.40;99.90;;;;;;5029128;28;19936;-69
2022/10/19 04:48:59;;;;;;;;;;;8.40;99.90;;;;;;5022507;28;19929;-69
2022/10/19 04:51:25;;;;;;;;;;;8.40;99.90;;;;;;5036807;28;19932;-69
2022/10/19 04:53:52;;;;;;;;;;;8.40;99.90;;;;;;5030358;28;19921;-69
2022/10/19 04:56:18;;;;;;;;;;;8.40;99.90;;;;;;5045368;28;19972;-69
2022/10/19 04:58:44;;;;;;;;;;;8.40;99.90;;;;;;5039469;28;19928;-69
2022/10/19 05:01:17;;;;;;;;;;;8.50;99.90;;;;;;5028819;28;20259;-69
2022/10/19 05:03:43;;;;;;;;;;;8.40;99.90;;;;;;5027322;28;20899;-69
2022/10/19 05:06:09;;;;;;;;;;;8.50;99.90;;;;;;5027413;28;19948;-69
2022/10/19 05:08:35;;;;;;;;;;;8.50;99.90;;;;;;5025120;28;19964;-69
2022/10/19 05:11:05;;;;;;;;;;;8.40;99.90;;;;;;5036268;28;20090;-69
2022/10/19 05:13:31;;;;;;;;;;;8.50;99.90;;;;;;5029981;28;19925;-69
2022/10/19 05:15:58;;;;;;;;;;;8.40;99.90;;;;;;5031181;28;20383;-69
2022/10/19 05:18:23;;;;;;;;;;;8.40;99.90;;;;;;5029898;28;19975;-69
2022/10/19 05:20:49;;;;;;;;;;;8.50;99.90;;;;;;5027319;28;19964;-69
2022/10/19 05:23:14;;;;;;;;;;;8.50;99.90;;;;;;5026319;28;19925;-69
2022/10/19 05:25:39;;;;;;;;;;;8.50;99.90;;;;;;5031145;28;20016;-69
2022/10/19 05:28:05;;;;;;;;;;;8.50;99.90;;;;;;5029144;28;19929;-69
2022/10/19 05:30:31;;;;;;;;;;;8.50;99.90;;;;;;5027861;28;19925;-69
2022/10/19 05:32:57;;;;;;;;;;;8.60;99.90;;;;;;5027705;28;19988;-69
2022/10/19 05:35:22;;;;;;;;;;;8.60;99.90;;;;;;5028524;28;20398;-69
2022/10/19 05:37:47;;;;;;;;;;;8.60;99.90;;;;;;5028741;28;19930;-69
2022/10/19 05:40:13;;;;;;;;;;;8.70;99.90;;;;;;5032584;28;19972;-69
2022/10/19 05:42:38;;;;;;;;;;;8.70;99.90;;;;;;5034249;28;19921;-69
2022/10/19 05:45:04;;;;;;;;;;;8.70;99.90;;;;;;5037679;28;19929;-69
2022/10/19 05:47:30;;;;;;;;;;;8.70;99.90;;;;;;5034255;28;19929;-69
2022/10/19 05:49:56;;;;;;;;;;;8.80;99.90;;;;;;5039427;28;19928;-69
2022/10/19 05:52:21;;;;;;;;;;;8.80;99.90;;;;;;5039413;28;20494;-69
2022/10/19 05:54:47;;;;;;;;;;;8.80;99.90;;;;;;5023171;28;19921;-69
2022/10/19 05:57:12;;;;;;;;;;;8.80;99.90;;;;;;5039563;28;19925;-69
2022/10/19 05:59:37;;;;;;;;;;;8.80;99.90;;;;;;5028131;28;19925;-69
2022/10/19 06:02:03;;;;;;;;;;;8.80;99.90;;;;;;5022414;28;20011;-69
2022/10/19 06:04:29;;;;;;;;;;;8.80;99.90;;;;;;5008311;28;19929;-69
2022/10/19 06:06:54;;;;;;;;;;;8.80;99.90;;;;;;5038828;23;19929;-67
2022/10/19 06:09:20;;;;;;;;;;;8.80;99.90;;;;;;5020183;28;19957;-67
2022/10/19 06:11:46;;;;;;;;;;;8.80;99.90;;;;;;5026294;28;19948;-67
2022/10/19 06:14:13;;;;;;;;;;;8.90;99.90;;;;;;5028193;28;20008;-66
2022/10/19 06:16:38;;;;;;;;;;;8.90;99.90;;;;;;5023505;28;19921;-67
2022/10/19 06:19:04;;;;;;;;;;;8.90;99.90;;;;;;5026640;28;20015;-67
2022/10/19 06:21:30;;;;;;;;;;;8.90;99.90;;;;;;5028013;28;19921;-68
2022/10/19 06:23:57;;;;;;;;;;;9.00;99.90;;;;;;5024096;28;19982;-67
2022/10/19 06:26:23;;;;;;;;;;;9.00;99.90;;;;;;5050678;28;20051;-67
2022/10/19 06:28:49;;;;;;;;;;;9.00;99.90;;;;;;5023997;28;20027;-68
2022/10/19 06:31:15;;;;;;;;;;;9.10;99.90;;;;;;5021096;28;20307;-66
2022/10/19 06:33:42;;;;;;;;;;;9.10;99.90;;;;;;5026630;28;19928;-66
2022/10/19 06:36:09;;;;;;;;;;;9.20;99.90;;;;;;5028318;28;20041;-67
2022/10/19 06:38:34;;;;;;;;;;;9.20;99.90;;;;;;5025848;28;19973;-66
2022/10/19 06:41:00;;;;;;;;;;;9.30;99.90;;;;;;5013968;28;19921;-67
2022/10/19 06:43:26;;;;;;;;;;;9.30;99.90;;;;;;5003158;28;20324;-66
2022/10/19 06:45:51;;;;;;;;;;;9.40;99.90;;;;;;5016956;28;19957;-67
2022/10/19 06:48:17;;;;;;;;;;;9.40;99.90;;;;;;5020618;28;19931;-66
2022/10/19 06:50:42;;;;;;;;;;;9.50;99.90;;;;;;5017949;28;20387;-67
2022/10/19 06:53:08;;;;;;;;;;;9.50;99.90;;;;;;5046165;28;19929;-67
2022/10/19 06:55:35;;;;;;;;;;;9.50;99.90;;;;;;5018846;28;20299;-66
2022/10/19 06:58:00;;;;;;;;;;;9.60;99.90;;;;;;5025380;28;19925;-67
2022/10/19 07:00:29;;;;;;;;;;;9.60;99.90;;;;;;5042517;28;20282;-66
2022/10/19 07:02:56;;;;;;;;;;;9.70;99.90;;;;;;5038192;28;19928;-67
2022/10/19 07:05:22;;;;;;;;;;;9.70;99.90;;;;;;5027627;28;19935;-67
2022/10/19 07:07:47;;;;;;;;;;;9.80;99.90;;;;;;5044746;28;19925;-67
2022/10/19 07:10:13;;;;;;;;;;;9.80;99.90;;;;;;5026088;28;20517;-67
2022/10/19 07:12:38;;;;;;;;;;;9.90;99.90;;;;;;5020137;28;19972;-69
2022/10/19 07:15:04;;;;;;;;;;;9.90;99.90;;;;;;5027782;28;19921;-68
2022/10/19 07:17:30;;;;;;;;;;;10.00;99.90;;;;;;5044548;28;20274;-69
2022/10/19 07:19:55;;;;;;;;;;;10.00;99.90;;;;;;5029985;28;19929;-67
2022/10/19 07:22:21;;;;;;;;;;;10.10;99.90;;;;;;5027618;28;20272;-67
2022/10/19 07:24:46;;;;;;;;;;;10.10;99.90;;;;;;5026351;28;19932;-67
2022/10/19 07:27:12;;;;;;;;;;;10.20;99.90;;;;;;5029903;28;20436;-68
2022/10/19 07:29:37;;;;;;;;;;;10.20;99.90;;;;;;5027228;28;19921;-67
2022/10/19 07:32:03;;;;;;;;;;;10.30;99.90;;;;;;5029742;28;19929;-68
2022/10/19 07:34:28;;;;;;;;;;;10.40;99.90;;;;;;5024410;28;19921;-67
2022/10/19 07:36:54;;;;;;;;;;;10.50;99.90;;;;;;5025789;28;20068;-67
2022/10/19 07:39:19;;;;;;;;;;;10.50;99.90;;;;;;5033752;28;20282;-68
2022/10/19 07:41:45;;;;;;;;;;;10.60;99.90;;;;;;5019671;28;20028;-67
2022/10/19 07:44:11;;;;;;;;;;;10.60;99.90;;;;;;5028111;28;19925;-67
2022/10/19 07:46:37;;;;;;;;;;;10.80;99.90;;;;;;5018281;28;19921;-66
2022/10/19 07:49:04;;;;;;;;;;;10.80;99.90;;;;;;5029492;28;19921;-67
2022/10/19 07:51:30;;;;;;;;;;;11.00;99.90;;;;;;5027551;28;19940;-67
2022/10/19 07:53:56;;;;;;;;;;;11.00;99.90;;;;;;5047059;28;19925;-66
2022/10/19 07:56:22;;;;;;;;;;;11.10;99.90;;;;;;5025057;28;19943;-67
2022/10/19 07:58:49;;;;;;;;;;;11.10;99.90;;;;;;5023084;28;19925;-67
2022/10/19 08:01:15;;;;;;;;;;;11.20;99.90;;;;;;5028564;28;19928;-67
2022/10/19 08:03:41;;;;;;;;;;;11.20;99.90;;;;;;5026370;28;19925;-67
2022/10/19 08:06:08;;;;;;;;;;;11.30;99.90;;;;;;5026961;28;19928;-68
2022/10/19 08:08:33;;;;;;;;;;;11.30;99.90;;;;;;5031895;28;19939;-67
2022/10/19 08:11:09;;;;;;;;;;;11.40;99.90;;;;;;5047416;28;19924;-67
2022/10/19 08:13:34;;;;;;;;;;;11.50;99.90;;;;;;5049419;28;19931;-67
2022/10/19 08:16:00;;;;;;;;;;;11.60;99.90;;;;;;5051266;28;20321;-67
2022/10/19 08:18:25;;;;;;;;;;;11.70;99.90;;;;;;5029090;28;20374;-67
2022/10/19 08:20:51;;;;;;;;;;;11.80;99.90;;;;;;5043406;28;19927;-67
2022/10/19 08:23:16;;;;;;;;;;;11.90;99.90;;;;;;5028340;28;19945;-67
2022/10/19 08:25:42;;;;;;;;;;;12.00;99.90;;;;;;5027224;28;19924;-67
2022/10/19 08:28:07;;;;;;;;;;;12.00;99.90;;;;;;5046757;28;19949;-67
2022/10/19 08:30:34;;;;;;;;;;;12.10;99.90;;;;;;5024413;28;20390;-67
2022/10/19 08:32:59;;;;;;;;;;;12.20;99.90;;;;;;5028650;28;19921;-67
2022/10/19 08:35:24;;;;;;;;;;;12.20;99.90;;;;;;5026528;28;19994;-67
2022/10/19 08:37:50;;;;;;;;;;;12.30;99.90;;;;;;5043363;28;19928;-68
2022/10/19 08:40:17;;;;;;;;;;;12.40;99.90;;;;;;5046887;28;20631;-68
2022/10/19 08:42:58;;;;;;;;;;;12.40;99.90;;;;;;5043498;28;19956;-67
2022/10/19 08:45:29;;;;;;;;;;;12.40;99.90;;;;;;5038170;28;20402;-68
2022/10/19 08:48:14;;;;;;;;;;;12.50;99.90;;;;;;5022876;28;19978;-68
2022/10/19 08:50:42;;;;;;;;;;;12.50;99.90;;;;;;5026318;28;19931;-68
2022/10/19 08:53:31;;;;;;;;;;;12.60;99.90;;;;;;5043462;28;19956;-68
2022/10/19 08:55:56;;;;;;;;;;;12.70;99.90;;;;;;5000811;28;19924;-68
2022/10/19 08:58:34;;;;;;;;;;;12.70;99.90;;;;;;5033962;28;20082;-68
2022/10/19 09:01:05;;;;;;;;;;;12.80;99.90;;;;;;5015055;28;20371;-68
2022/10/19 09:03:41;;;;;;;;;;;12.90;99.90;;;;;;5017842;28;19970;-68
2022/10/19 09:06:20;;;;;;;;;;;12.90;99.90;;;;;;5039042;28;19929;-68
2022/10/19 09:08:47;;;;;;;;;;;12.90;99.90;;;;;;5038359;28;19928;-68
2022/10/19 09:11:13;;;;;;;;;;;13.00;99.90;;;;;;5021606;28;19920;-68
2022/10/19 09:13:41;;;;;;;;;;;13.00;99.90;;;;;;5018346;28;20059;-69
2022/10/19 09:16:10;;;;;;;;;;;13.00;99.90;;;;;;5031657;28;19956;-68
2022/10/19 09:18:36;;;;;;;;;;;13.00;99.90;;;;;;5020560;28;19921;-68
2022/10/19 09:21:08;;;;;;;;;;;13.00;99.90;;;;;;5036653;28;20063;-68
2022/10/19 09:23:34;;;;;;;;;;;13.00;99.90;;;;;;5021546;28;19925;-68
2022/10/19 09:25:59;;;;;;;;;;;13.10;99.90;;;;;;5017498;28;19927;-68
2022/10/19 09:28:43;;;;;;;;;;;13.10;99.90;;;;;;5037206;28;19952;-68
2022/10/19 09:31:12;;;;;;;;;;;13.20;99.90;;;;;;5015565;28;20314;-68
2022/10/19 09:33:38;;;;;;;;;;;13.20;99.90;;;;;;5017561;28;19929;-68
2022/10/19 09:36:04;;;;;;;;;;;13.20;99.90;;;;;;5041754;28;19925;-68
2022/10/19 09:38:30;;;;;;;;;;;13.20;99.90;;;;;;5019140;28;19925;-68
2022/10/19 09:41:16;;;;;;;;;;;13.30;99.90;;;;;;5017891;28;19932;-68
2022/10/19 09:43:49;;;;;;;;;;;13.20;99.90;;;;;;5026618;28;19921;-68
2022/10/19 09:46:25;;;;;;;;;;;13.20;99.90;;;;;;5018280;28;19970;-68
2022/10/19 09:48:51;;;;;;;;;;;13.20;99.90;;;;;;5022353;28;19929;-68
2022/10/19 09:51:17;;;;;;;;;;;13.10;99.90;;;;;;5022430;28;19952;-68
2022/10/19 09:53:43;;;;;;;;;;;13.10;99.90;;;;;;5022944;28;20278;-68
2022/10/19 09:56:16;;;;;;;;;;;13.10;99.90;;;;;;5033845;28;20008;-68
2022/10/19 09:58:46;;;;;;;;;;;13.20;99.90;;;;;;5025844;28;19970;-68
2022/10/19 10:01:27;;;;;;;;;;;13.30;99.90;;;;;;5037462;28;20004;-68
2022/10/19 10:04:03;;;;;;;;;;;13.30;99.90;;;;;;5019553;28;20270;-68
2022/10/19 10:06:28;;;;;;;;;;;13.30;99.90;;;;;;5020523;28;20008;-68
2022/10/19 10:08:57;;;;;;;;;;;13.30;99.90;;;;;;5038387;28;20461;-68
2022/10/19 10:11:31;;;;;;;;;;;13.30;99.90;;;;;;5023635;28;20317;-68
2022/10/19 10:13:59;;;;;;;;;;;13.40;99.90;;;;;;5022915;28;19964;-68
2022/10/19 10:16:32;;;;;;;;;;;13.30;99.90;;;;;;5025870;28;19983;-69
2022/10/19 10:19:10;;;;;;;;;;;13.40;99.90;;;;;;5032286;28;20058;-68
2022/10/19 10:21:46;;;;;;;;;;;13.50;99.90;;;;;;5017869;28;20378;-68
2022/10/19 10:24:11;;;;;;;;;;;13.70;99.90;;;;;;5016596;28;19925;-69
2022/10/19 10:26:41;;;;;;;;;;;13.70;99.90;;;;;;5018613;28;19929;-69
2022/10/19 10:29:22;;;;;;;;;;;13.70;99.90;;;;;;5024050;28;20290;-69
2022/10/19 10:31:52;;;;;;;;;;;13.70;99.90;;;;;;5024010;28;19991;-69
2022/10/19 10:34:26;;;;;;;;;;;13.70;99.90;;;;;;5044629;28;20473;-69
2022/10/19 10:36:52;;;;;;;;;;;13.80;99.90;;;;;;5024220;28;19921;-69
2022/10/19 10:39:19;;;;;;;;;;;13.90;99.90;;;;;;5043955;28;19967;-69
2022/10/19 10:41:49;;;;;;;;;;;13.90;99.90;;;;;;5034706;28;20398;-69
2022/10/19 10:44:18;;;;;;;;;;;13.90;99.90;;;;;;5029857;28;19921;-69
2022/10/19 10:46:55;;;;;;;;;;;13.90;99.90;;;;;;5022671;28;20372;-69
2022/10/19 10:49:25;;;;;;;;;;;13.90;99.90;;;;;;5040087;28;19921;-69
2022/10/19 10:51:59;;;;;;;;;;;14.00;99.90;;;;;;5020922;28;19920;-69
2022/10/19 10:54:30;;;;;;;;;;;14.00;99.90;;;;;;5018687;28;19927;-68
2022/10/19 10:56:55;;;;;;;;;;;14.00;99.90;;;;;;5037358;28;19925;-69
2022/10/19 10:59:24;;;;;;;;;;;14.20;99.90;;;;;;5019430;28;19949;-68
2022/10/19 11:02:13;;;;;;;;;;;14.10;99.90;;;;;;5022287;28;20248;-70
2022/10/19 11:04:41;;;;;;;;;;;14.10;99.90;;;;;;5016419;28;19928;-68
2022/10/19 11:07:15;;;;;;;;;;;14.10;99.90;;;;;;5015552;28;19929;-69
2022/10/19 11:09:43;;;;;;;;;;;14.00;99.90;;;;;;5018653;28;19921;-69
2022/10/19 11:12:11;;;;;;;;;;;13.90;99.90;;;;;;5026798;28;19978;-69
2022/10/19 11:14:42;;;;;;;;;;;14.00;99.90;;;;;;5020339;28;19933;-69
2022/10/19 11:17:13;;;;;;;;;;;14.10;99.90;;;;;;5034856;28;19921;-69
2022/10/19 11:19:40;;;;;;;;;;;14.10;99.90;;;;;;5018811;28;19925;-68
2022/10/19 11:22:10;;;;;;;;;;;14.00;99.90;;;;;;5030482;28;19999;-69
2022/10/19 11:24:59;;;;;;;;;;;14.00;99.90;;;;;;5023803;28;20016;-69
2022/10/19 11:27:40;;;;;;;;;;;14.00;99.90;;;;;;5022301;28;19937;-68
2022/10/19 11:30:19;;;;;;;;;;;14.10;99.90;;;;;;5024048;28;20012;-68
2022/10/19 11:33:03;;;;;;;;;;;14.20;99.90;;;;;;5019356;28;20099;-68
2022/10/19 11:35:49;;;;;;;;;;;14.20;99.90;;;;;;5033850;28;19928;-69
2022/10/19 11:38:14;;;;;;;;;;;14.20;99.90;;;;;;5019701;28;19959;-68
2022/10/19 11:40:43;;;;;;;;;;;14.20;99.90;;;;;;5018208;28;19928;-68
2022/10/19 11:43:17;;;;;;;;;;;14.20;99.90;;;;;;5023518;28;19925;-69
2022/10/19 11:45:52;;;;;;;;;;;14.30;99.90;;;;;;5018415;28;19921;-69
2022/10/19 11:48:20;;;;;;;;;;;14.30;99.90;;;;;;5019140;28;19932;-69
2022/10/19 11:51:06;;;;;;;;;;;14.30;99.90;;;;;;5015866;28;19925;-69
2022/10/19 11:53:47;;;;;;;;;;;14.00;99.90;;;;;;5043199;28;19921;-68
2022/10/19 11:56:24;;;;;;;;;;;13.90;99.90;;;;;;5038888;28;19921;-69
2022/10/19 11:58:57;;;;;;;;;;;14.00;99.90;;;;;;5045818;28;19920;-68
2022/10/19 12:01:40;;;;;;;;;;;14.10;99.90;;;;;;5020504;28;20251;-69
2022/10/19 12:04:22;;;;;;;;;;;14.00;99.90;;;;;;5038540;28;20298;-69
2022/10/19 12:06:55;;;;;;;;;;;13.90;99.90;;;;;;5036083;28;20028;-68
2022/10/19 12:09:26;;;;;;;;;;;13.90;99.90;;;;;;5019324;28;19983;-69
2022/10/19 12:12:06;;;;;;;;;;;13.80;99.90;;;;;;5021728;28;19925;-69
2022/10/19 12:14:34;;;;;;;;;;;13.80;99.90;;;;;;5022871;28;19956;-68
2022/10/19 12:17:04;;;;;;;;;;;13.80;99.90;;;;;;5025680;28;19986;-69
2022/10/19 12:19:37;;;;;;;;;;;13.70;99.90;;;;;;5027612;28;19921;-69
2022/10/19 12:22:04;;;;;;;;;;;13.60;99.90;;;;;;5046650;28;19931;-69
2022/10/19 12:24:31;;;;;;;;;;;13.50;99.90;;;;;;5026824;28;20402;-68
2022/10/19 12:26:58;;;;;;;;;;;13.50;99.90;;;;;;5027417;28;19944;-68
2022/10/19 12:29:25;;;;;;;;;;;13.40;99.90;;;;;;5027614;28;19925;-69
2022/10/19 12:31:52;;;;;;;;;;;13.40;99.90;;;;;;5026401;28;19921;-68
2022/10/19 12:34:36;;;;;;;;;;;13.50;99.90;;;;;;5015996;28;19925;-69
2022/10/19 12:37:11;;;;;;;;;;;13.50;99.90;;;;;;5035078;28;19959;-69
2022/10/19 12:39:44;;;;;;;;;;;13.50;99.90;;;;;;5038586;28;19932;-68
2022/10/19 12:42:10;;;;;;;;;;;13.70;99.90;;;;;;5019028;28;19928;-68
2022/10/19 12:44:45;;;;;;;;;;;13.80;99.90;;;;;;5016324;28;20410;-68
2022/10/19 12:47:13;;;;;;;;;;;13.90;99.90;;;;;;5036044;28;19928;-69
2022/10/19 12:49:43;;;;;;;;;;;14.10;99.90;;;;;;5040140;28;19929;-68
2022/10/19 12:52:08;;;;;;;;;;;14.20;99.90;;;;;;5026368;28;20000;-69
2022/10/19 12:54:35;;;;;;;;;;;14.40;99.90;;;;;;5025024;28;20015;-69
2022/10/19 12:57:01;;;;;;;;;;;14.40;99.90;;;;;;5033076;28;20437;-69
2022/10/19 12:59:31;;;;;;;;;;;14.50;99.90;;;;;;5021159;28;19921;-69
2022/10/19 13:01:58;;;;;;;;;;;14.40;99.90;;;;;;5044965;28;19925;-69
2022/10/19 13:04:25;;;;;;;;;;;14.30;99.90;;;;;;5035511;28;20381;-68
2022/10/19 13:06:56;;;;;;;;;;;14.30;99.90;;;;;;5019706;28;19929;-68
2022/10/19 13:09:31;;;;;;;;;;;14.20;99.90;;;;;;5040317;28;20035;-68
2022/10/19 13:12:15;;;;;;;;;;;14.00;99.90;;;;;;5027600;28;20310;-69
2022/10/19 13:14:44;;;;;;;;;;;14.00;99.90;;;;;;5018424;28;19928;-68
2022/10/19 13:17:29;;;;;;;;;;;14.00;99.90;;;;;;5015063;28;19927;-68
2022/10/19 13:20:13;;;;;;;;;;;13.70;99.90;;;;;;5024391;28;19936;-69
2022/10/19 13:22:40;;;;;;;;;;;13.50;99.90;;;;;;5039268;28;19921;-69
2022/10/19 13:25:17;;;;;;;;;;;13.40;99.90;;;;;;5018754;28;20015;-68
2022/10/19 13:27:44;;;;;;;;;;;13.30;99.90;;;;;;5029915;28;19935;-68
2022/10/19 13:30:28;;;;;;;;;;;13.30;99.90;;;;;;5037862;28;20391;-68
2022/10/19 13:32:54;;;;;;;;;;;13.30;99.90;;;;;;5033518;28;19925;-68
2022/10/19 13:35:24;;;;;;;;;;;13.20;99.90;;;;;;5032683;28;20286;-68
2022/10/19 13:38:08;;;;;;;;;;;13.10;99.90;;;;;;5026619;28;20003;-68
2022/10/19 13:40:36;;;;;;;;;;;13.00;99.90;;;;;;5019049;28;19921;-68
2022/10/19 13:43:01;;;;;;;;;;;13.00;99.90;;;;;;5042566;28;20345;-68
2022/10/19 13:45:27;;;;;;;;;;;12.90;99.90;;;;;;5023722;28;19925;-68
2022/10/19 13:47:57;;;;;;;;;;;12.90;99.90;;;;;;5035139;28;19925;-68
2022/10/19 13:50:30;;;;;;;;;;;12.80;99.90;;;;;;5019214;28;19970;-68
2022/10/19 13:53:06;;;;;;;;;;;12.90;99.90;;;;;;5038318;28;20244;-68
2022/10/19 13:55:31;;;;;;;;;;;12.80;99.90;;;;;;5027414;28;19929;-68
2022/10/19 13:57:57;;;;;;;;;;;12.90;99.90;;;;;;5027227;28;19989;-68
2022/10/19 14:00:23;;;;;;;;;;;12.90;99.90;;;;;;5027350;28;20026;-68
2022/10/19 14:03:01;;;;;;;;;;;12.90;99.90;;;;;;5053045;28;19924;-68
2022/10/19 14:05:40;;;;;;;;;;;13.00;99.90;;;;;;5030018;28;20439;-68
2022/10/19 14:08:12;;;;;;;;;;;13.00;99.90;;;;;;5018568;28;20020;-69
2022/10/19 14:10:38;;;;;;;;;;;13.00;99.90;;;;;;5040113;28;19921;-68
2022/10/19 14:13:04;;;;;;;;;;;13.00;99.90;;;;;;5020530;28;19978;-69
2022/10/19 14:15:31;;;;;;;;;;;13.10;99.90;;;;;;5040806;28;19948;-69
2022/10/19 14:17:56;;;;;;;;;;;13.10;99.90;;;;;;5029525;28;19929;-68
2022/10/19 14:20:31;;;;;;;;;;;13.20;99.90;;;;;;5050906;28;19935;-68
2022/10/19 14:22:57;;;;;;;;;;;13.20;99.90;;;;;;5026797;28;20481;-68
2022/10/19 14:25:25;;;;;;;;;;;13.20;99.90;;;;;;5026314;28;20015;-68
2022/10/19 14:28:03;;;;;;;;;;;13.10;99.90;;;;;;5049387;28;20461;-68
2022/10/19 14:30:35;;;;;;;;;;;13.20;99.90;;;;;;5030061;28;19929;-69